sensor_id;sensor_type;location;lat;lon;timestamp;P1;durP1;ratioP1;P2;durP2;ratioP2
16689;SDS011;8458;52.220;9.884;2022-11-24T00:00:52;1.50;;;1.00;;
16689;SDS011;8458;52.220;9.884;2022-11-24T00:03:20;2.40;;;0.93;;
16689;SDS011;8458;52.220;9.884;2022-11-24T00:05:46;1.67;;;1.00;;
16689;SDS011;8458;52.220;9.884;2022-11-24T00:08:13;2.23;;;0.93;;
16689;SDS011;8458;52.220;9.884;2022-11-24T00:10:39;1.37;;;0.90;;
16689;SDS011;8458;52.220;9.884;2022-11-24T00:13:06;1.30;;;0.97;;
16689;SDS011;8458;52.220;9.884;2022-11-24T00:15:32;1.97;;;1.20;;
16689;SDS011;8458;52.220;9.884;2022-11-24T00:17:59;2.70;;;1.27;;
16689;SDS011;8458;52.220;9.884;2022-11-24T00:20:26;2.30;;;1.17;;
16689;SDS011;8458;52.220;9.884;2022-11-24T00:22:53;1.67;;;1.17;;
16689;SDS011;8458;52.220;9.884;2022-11-24T00:25:19;1.30;;;1.00;;
16689;SDS011;8458;52.220;9.884;2022-11-24T00:27:46;2.57;;;1.03;;
16689;SDS011;8458;52.220;9.884;2022-11-24T00:30:12;2.37;;;1.30;;
16689;SDS011;8458;52.220;9.884;2022-11-24T00:32:39;1.57;;;1.20;;
16689;SDS011;8458;52.220;9.884;2022-11-24T00:35:06;2.00;;;1.47;;
16689;SDS011;8458;52.220;9.884;2022-11-24T00:37:34;2.30;;;1.50;;
16689;SDS011;8458;52.220;9.884;2022-11-24T00:40:00;1.20;;;1.10;;
16689;SDS011;8458;52.220;9.884;2022-11-24T00:42:27;2.20;;;1.40;;
16689;SDS011;8458;52.220;9.884;2022-11-24T00:44:53;2.70;;;1.50;;
16689;SDS011;8458;52.220;9.884;2022-11-24T00:47:20;2.20;;;1.43;;
16689;SDS011;8458;52.220;9.884;2022-11-24T00:49:46;1.40;;;1.17;;
16689;SDS011;8458;52.220;9.884;2022-11-24T00:52:13;1.67;;;1.50;;
16689;SDS011;8458;52.220;9.884;2022-11-24T00:54:40;1.53;;;1.20;;
16689;SDS011;8458;52.220;9.884;2022-11-24T00:57:07;2.27;;;1.60;;
16689;SDS011;8458;52.220;9.884;2022-11-24T00:59:33;3.07;;;1.50;;
16689;SDS011;8458;52.220;9.884;2022-11-24T01:02:00;2.57;;;1.50;;
16689;SDS011;8458;52.220;9.884;2022-11-24T01:04:26;3.30;;;1.60;;
16689;SDS011;8458;52.220;9.884;2022-11-24T01:06:52;1.93;;;1.30;;
16689;SDS011;8458;52.220;9.884;2022-11-24T01:09:19;2.27;;;1.33;;
16689;SDS011;8458;52.220;9.884;2022-11-24T01:11:47;3.07;;;1.60;;
16689;SDS011;8458;52.220;9.884;2022-11-24T01:14:29;1.80;;;1.20;;
16689;SDS011;8458;52.220;9.884;2022-11-24T01:16:56;3.13;;;1.53;;
16689;SDS011;8458;52.220;9.884;2022-11-24T01:19:22;2.03;;;1.37;;
16689;SDS011;8458;52.220;9.884;2022-11-24T01:21:49;2.07;;;1.37;;
16689;SDS011;8458;52.220;9.884;2022-11-24T01:24:16;2.53;;;1.40;;
16689;SDS011;8458;52.220;9.884;2022-11-24T01:26:43;3.20;;;1.53;;
16689;SDS011;8458;52.220;9.884;2022-11-24T01:29:11;2.73;;;1.43;;
16689;SDS011;8458;52.220;9.884;2022-11-24T01:31:37;1.40;;;1.30;;
16689;SDS011;8458;52.220;9.884;2022-11-24T01:34:04;2.87;;;1.20;;
16689;SDS011;8458;52.220;9.884;2022-11-24T01:36:31;3.17;;;1.30;;
16689;SDS011;8458;52.220;9.884;2022-11-24T01:38:58;2.87;;;1.67;;
16689;SDS011;8458;52.220;9.884;2022-11-24T01:41:25;2.57;;;1.50;;
16689;SDS011;8458;52.220;9.884;2022-11-24T01:43:52;2.90;;;1.57;;
16689;SDS011;8458;52.220;9.884;2022-11-24T01:46:21;2.10;;;1.30;;
16689;SDS011;8458;52.220;9.884;2022-11-24T01:48:55;3.20;;;1.67;;
16689;SDS011;8458;52.220;9.884;2022-11-24T01:51:38;2.67;;;1.57;;
16689;SDS011;8458;52.220;9.884;2022-11-24T01:54:09;3.43;;;1.37;;
16689;SDS011;8458;52.220;9.884;2022-11-24T01:56:39;2.50;;;1.40;;
16689;SDS011;8458;52.220;9.884;2022-11-24T01:59:08;4.40;;;1.73;;
16689;SDS011;8458;52.220;9.884;2022-11-24T02:01:39;3.97;;;1.67;;
16689;SDS011;8458;52.220;9.884;2022-11-24T02:04:07;2.17;;;1.33;;
16689;SDS011;8458;52.220;9.884;2022-11-24T02:06:38;1.93;;;1.40;;
16689;SDS011;8458;52.220;9.884;2022-11-24T02:09:10;2.97;;;1.80;;
16689;SDS011;8458;52.220;9.884;2022-11-24T02:11:41;2.77;;;1.50;;
16689;SDS011;8458;52.220;9.884;2022-11-24T02:14:10;3.63;;;1.57;;
16689;SDS011;8458;52.220;9.884;2022-11-24T02:16:40;7.23;;;1.90;;
16689;SDS011;8458;52.220;9.884;2022-11-24T02:19:10;3.83;;;1.67;;
16689;SDS011;8458;52.220;9.884;2022-11-24T02:21:43;3.43;;;1.63;;
16689;SDS011;8458;52.220;9.884;2022-11-24T02:24:11;2.60;;;1.40;;
16689;SDS011;8458;52.220;9.884;2022-11-24T02:26:46;2.70;;;1.47;;
16689;SDS011;8458;52.220;9.884;2022-11-24T02:29:16;3.60;;;1.80;;
16689;SDS011;8458;52.220;9.884;2022-11-24T02:31:44;3.27;;;1.70;;
16689;SDS011;8458;52.220;9.884;2022-11-24T02:34:14;3.43;;;1.67;;
16689;SDS011;8458;52.220;9.884;2022-11-24T02:36:40;6.23;;;1.80;;
16689;SDS011;8458;52.220;9.884;2022-11-24T02:39:08;3.20;;;1.50;;
16689;SDS011;8458;52.220;9.884;2022-11-24T02:41:35;4.07;;;1.43;;
16689;SDS011;8458;52.220;9.884;2022-11-24T02:44:04;4.83;;;1.77;;
16689;SDS011;8458;52.220;9.884;2022-11-24T02:46:31;4.43;;;1.57;;
16689;SDS011;8458;52.220;9.884;2022-11-24T02:48:57;5.23;;;1.87;;
16689;SDS011;8458;52.220;9.884;2022-11-24T02:51:23;3.37;;;1.60;;
16689;SDS011;8458;52.220;9.884;2022-11-24T02:53:50;3.67;;;1.40;;
16689;SDS011;8458;52.220;9.884;2022-11-24T02:56:16;4.57;;;1.70;;
16689;SDS011;8458;52.220;9.884;2022-11-24T02:58:43;2.70;;;1.40;;
16689;SDS011;8458;52.220;9.884;2022-11-24T03:01:11;6.07;;;1.90;;
16689;SDS011;8458;52.220;9.884;2022-11-24T03:03:37;4.93;;;1.73;;
16689;SDS011;8458;52.220;9.884;2022-11-24T03:06:04;4.13;;;1.57;;
16689;SDS011;8458;52.220;9.884;2022-11-24T03:08:30;4.30;;;2.20;;
16689;SDS011;8458;52.220;9.884;2022-11-24T03:10:57;4.07;;;1.40;;
16689;SDS011;8458;52.220;9.884;2022-11-24T03:13:23;5.47;;;1.80;;
16689;SDS011;8458;52.220;9.884;2022-11-24T03:15:50;2.20;;;1.47;;
16689;SDS011;8458;52.220;9.884;2022-11-24T03:18:18;5.30;;;1.57;;
16689;SDS011;8458;52.220;9.884;2022-11-24T03:20:44;4.30;;;1.77;;
16689;SDS011;8458;52.220;9.884;2022-11-24T03:23:11;4.37;;;1.80;;
16689;SDS011;8458;52.220;9.884;2022-11-24T03:25:37;2.47;;;1.50;;
16689;SDS011;8458;52.220;9.884;2022-11-24T03:28:04;3.70;;;1.60;;
16689;SDS011;8458;52.220;9.884;2022-11-24T03:30:30;4.17;;;1.57;;
16689;SDS011;8458;52.220;9.884;2022-11-24T03:32:57;3.27;;;1.60;;
16689;SDS011;8458;52.220;9.884;2022-11-24T03:35:25;4.17;;;1.60;;
16689;SDS011;8458;52.220;9.884;2022-11-24T03:37:51;4.33;;;1.67;;
16689;SDS011;8458;52.220;9.884;2022-11-24T03:40:18;4.00;;;1.80;;
16689;SDS011;8458;52.220;9.884;2022-11-24T03:42:44;5.13;;;2.00;;
16689;SDS011;8458;52.220;9.884;2022-11-24T03:45:11;4.17;;;1.90;;
16689;SDS011;8458;52.220;9.884;2022-11-24T03:47:37;2.00;;;1.70;;
16689;SDS011;8458;52.220;9.884;2022-11-24T03:50:04;5.17;;;1.83;;
16689;SDS011;8458;52.220;9.884;2022-11-24T03:52:32;2.80;;;1.40;;
16689;SDS011;8458;52.220;9.884;2022-11-24T03:54:59;5.30;;;1.80;;
16689;SDS011;8458;52.220;9.884;2022-11-24T03:57:25;3.83;;;1.83;;
16689;SDS011;8458;52.220;9.884;2022-11-24T03:59:52;3.93;;;1.87;;
16689;SDS011;8458;52.220;9.884;2022-11-24T04:02:19;4.07;;;1.73;;
16689;SDS011;8458;52.220;9.884;2022-11-24T04:04:45;4.67;;;1.53;;
16689;SDS011;8458;52.220;9.884;2022-11-24T04:07:14;2.90;;;1.57;;
16689;SDS011;8458;52.220;9.884;2022-11-24T04:09:42;4.60;;;1.77;;
16689;SDS011;8458;52.220;9.884;2022-11-24T04:12:09;3.67;;;1.70;;
16689;SDS011;8458;52.220;9.884;2022-11-24T04:14:53;2.63;;;1.40;;
16689;SDS011;8458;52.220;9.884;2022-11-24T04:17:20;3.83;;;1.83;;
16689;SDS011;8458;52.220;9.884;2022-11-24T04:19:46;5.43;;;1.80;;
16689;SDS011;8458;52.220;9.884;2022-11-24T04:22:13;3.57;;;1.80;;
16689;SDS011;8458;52.220;9.884;2022-11-24T04:24:39;3.30;;;2.00;;
16689;SDS011;8458;52.220;9.884;2022-11-24T04:27:07;4.47;;;1.53;;
16689;SDS011;8458;52.220;9.884;2022-11-24T04:29:33;4.67;;;1.97;;
16689;SDS011;8458;52.220;9.884;2022-11-24T04:32:00;4.07;;;2.03;;
16689;SDS011;8458;52.220;9.884;2022-11-24T04:34:26;4.50;;;1.97;;
16689;SDS011;8458;52.220;9.884;2022-11-24T04:36:53;4.47;;;1.63;;
16689;SDS011;8458;52.220;9.884;2022-11-24T04:39:19;5.07;;;1.90;;
16689;SDS011;8458;52.220;9.884;2022-11-24T04:41:46;7.30;;;1.87;;
16689;SDS011;8458;52.220;9.884;2022-11-24T04:44:14;4.17;;;1.80;;
16689;SDS011;8458;52.220;9.884;2022-11-24T04:46:40;3.60;;;1.67;;
16689;SDS011;8458;52.220;9.884;2022-11-24T04:49:07;4.90;;;1.80;;
16689;SDS011;8458;52.220;9.884;2022-11-24T04:51:35;5.33;;;2.10;;
16689;SDS011;8458;52.220;9.884;2022-11-24T04:54:02;4.13;;;1.97;;
16689;SDS011;8458;52.220;9.884;2022-11-24T04:56:28;2.70;;;1.60;;
16689;SDS011;8458;52.220;9.884;2022-11-24T04:58:55;4.87;;;1.70;;
16689;SDS011;8458;52.220;9.884;2022-11-24T05:01:22;3.70;;;1.87;;
16689;SDS011;8458;52.220;9.884;2022-11-24T05:03:51;5.07;;;2.03;;
16689;SDS011;8458;52.220;9.884;2022-11-24T05:06:18;5.00;;;1.93;;
16689;SDS011;8458;52.220;9.884;2022-11-24T05:08:45;4.27;;;1.60;;
16689;SDS011;8458;52.220;9.884;2022-11-24T05:11:12;5.70;;;1.50;;
16689;SDS011;8458;52.220;9.884;2022-11-24T05:13:39;4.10;;;2.30;;
16689;SDS011;8458;52.220;9.884;2022-11-24T05:16:06;3.33;;;1.73;;
16689;SDS011;8458;52.220;9.884;2022-11-24T05:18:34;3.83;;;1.67;;
16689;SDS011;8458;52.220;9.884;2022-11-24T05:21:02;4.53;;;2.07;;
16689;SDS011;8458;52.220;9.884;2022-11-24T05:23:29;4.60;;;1.90;;
16689;SDS011;8458;52.220;9.884;2022-11-24T05:25:57;5.17;;;1.83;;
16689;SDS011;8458;52.220;9.884;2022-11-24T05:28:24;4.17;;;1.83;;
16689;SDS011;8458;52.220;9.884;2022-11-24T05:30:51;3.53;;;2.00;;
16689;SDS011;8458;52.220;9.884;2022-11-24T05:33:17;3.83;;;1.70;;
16689;SDS011;8458;52.220;9.884;2022-11-24T05:35:48;3.83;;;1.87;;
16689;SDS011;8458;52.220;9.884;2022-11-24T05:38:15;4.50;;;2.27;;
16689;SDS011;8458;52.220;9.884;2022-11-24T05:40:42;4.03;;;1.90;;
16689;SDS011;8458;52.220;9.884;2022-11-24T05:43:09;3.70;;;2.03;;
16689;SDS011;8458;52.220;9.884;2022-11-24T05:45:36;7.37;;;2.10;;
16689;SDS011;8458;52.220;9.884;2022-11-24T05:48:03;5.30;;;2.13;;
16689;SDS011;8458;52.220;9.884;2022-11-24T05:50:31;5.30;;;2.13;;
16689;SDS011;8458;52.220;9.884;2022-11-24T05:53:02;5.60;;;2.40;;
16689;SDS011;8458;52.220;9.884;2022-11-24T05:55:29;4.37;;;1.67;;
16689;SDS011;8458;52.220;9.884;2022-11-24T05:57:58;5.60;;;1.90;;
16689;SDS011;8458;52.220;9.884;2022-11-24T06:00:25;3.53;;;1.93;;
16689;SDS011;8458;52.220;9.884;2022-11-24T06:02:52;6.40;;;2.03;;
16689;SDS011;8458;52.220;9.884;2022-11-24T06:05:18;4.17;;;1.83;;
16689;SDS011;8458;52.220;9.884;2022-11-24T06:07:45;4.53;;;2.00;;
16689;SDS011;8458;52.220;9.884;2022-11-24T06:10:13;3.80;;;1.50;;
16689;SDS011;8458;52.220;9.884;2022-11-24T06:12:40;3.60;;;1.50;;
16689;SDS011;8458;52.220;9.884;2022-11-24T06:15:07;6.00;;;1.90;;
16689;SDS011;8458;52.220;9.884;2022-11-24T06:17:35;5.10;;;1.70;;
16689;SDS011;8458;52.220;9.884;2022-11-24T06:20:02;3.90;;;1.97;;
16689;SDS011;8458;52.220;9.884;2022-11-24T06:22:29;4.87;;;2.23;;
16689;SDS011;8458;52.220;9.884;2022-11-24T06:24:56;3.50;;;2.17;;
16689;SDS011;8458;52.220;9.884;2022-11-24T06:27:23;3.90;;;2.03;;
16689;SDS011;8458;52.220;9.884;2022-11-24T06:29:50;5.23;;;2.30;;
16689;SDS011;8458;52.220;9.884;2022-11-24T06:32:17;4.17;;;2.60;;
16689;SDS011;8458;52.220;9.884;2022-11-24T06:34:44;4.93;;;2.30;;
16689;SDS011;8458;52.220;9.884;2022-11-24T06:37:10;3.60;;;2.30;;
16689;SDS011;8458;52.220;9.884;2022-11-24T06:39:37;4.03;;;2.33;;
16689;SDS011;8458;52.220;9.884;2022-11-24T06:42:03;4.07;;;2.33;;
16689;SDS011;8458;52.220;9.884;2022-11-24T06:44:31;3.73;;;2.43;;
16689;SDS011;8458;52.220;9.884;2022-11-24T06:46:57;4.93;;;3.27;;
16689;SDS011;8458;52.220;9.884;2022-11-24T06:49:24;4.40;;;2.80;;
16689;SDS011;8458;52.220;9.884;2022-11-24T06:51:50;4.50;;;2.40;;
16689;SDS011;8458;52.220;9.884;2022-11-24T06:54:19;3.97;;;2.10;;
16689;SDS011;8458;52.220;9.884;2022-11-24T06:56:46;3.97;;;2.63;;
16689;SDS011;8458;52.220;9.884;2022-11-24T06:59:16;3.43;;;2.13;;
16689;SDS011;8458;52.220;9.884;2022-11-24T07:01:47;4.63;;;2.90;;
16689;SDS011;8458;52.220;9.884;2022-11-24T07:04:14;4.63;;;2.73;;
16689;SDS011;8458;52.220;9.884;2022-11-24T07:06:41;2.90;;;2.23;;
16689;SDS011;8458;52.220;9.884;2022-11-24T07:09:08;2.90;;;2.20;;
16689;SDS011;8458;52.220;9.884;2022-11-24T07:11:35;4.50;;;2.23;;
16689;SDS011;8458;52.220;9.884;2022-11-24T07:14:02;4.90;;;2.23;;
16689;SDS011;8458;52.220;9.884;2022-11-24T07:16:29;3.60;;;2.40;;
16689;SDS011;8458;52.220;9.884;2022-11-24T07:18:57;7.13;;;2.50;;
16689;SDS011;8458;52.220;9.884;2022-11-24T07:21:24;6.60;;;2.50;;
16689;SDS011;8458;52.220;9.884;2022-11-24T07:23:51;5.87;;;2.27;;
16689;SDS011;8458;52.220;9.884;2022-11-24T07:26:18;5.77;;;2.00;;
16689;SDS011;8458;52.220;9.884;2022-11-24T07:28:45;4.90;;;2.13;;
16689;SDS011;8458;52.220;9.884;2022-11-24T07:31:12;4.43;;;1.73;;
16689;SDS011;8458;52.220;9.884;2022-11-24T07:33:41;4.87;;;1.87;;
16689;SDS011;8458;52.220;9.884;2022-11-24T07:36:09;7.33;;;2.27;;
16689;SDS011;8458;52.220;9.884;2022-11-24T07:38:35;4.73;;;1.60;;
16689;SDS011;8458;52.220;9.884;2022-11-24T07:41:02;4.27;;;1.67;;
16689;SDS011;8458;52.220;9.884;2022-11-24T07:43:31;4.33;;;1.87;;
16689;SDS011;8458;52.220;9.884;2022-11-24T07:45:59;5.73;;;2.03;;
16689;SDS011;8458;52.220;9.884;2022-11-24T07:48:26;4.03;;;1.67;;
16689;SDS011;8458;52.220;9.884;2022-11-24T07:50:53;4.70;;;1.83;;
16689;SDS011;8458;52.220;9.884;2022-11-24T07:53:21;4.87;;;1.83;;
16689;SDS011;8458;52.220;9.884;2022-11-24T07:55:51;6.10;;;1.90;;
16689;SDS011;8458;52.220;9.884;2022-11-24T07:58:18;4.10;;;1.73;;
16689;SDS011;8458;52.220;9.884;2022-11-24T08:00:45;5.20;;;2.00;;
16689;SDS011;8458;52.220;9.884;2022-11-24T08:03:11;4.97;;;1.80;;
16689;SDS011;8458;52.220;9.884;2022-11-24T08:05:37;5.60;;;1.80;;
16689;SDS011;8458;52.220;9.884;2022-11-24T08:08:04;7.40;;;2.23;;
16689;SDS011;8458;52.220;9.884;2022-11-24T08:13:00;4.57;;;1.60;;
16689;SDS011;8458;52.220;9.884;2022-11-24T08:15:26;3.93;;;1.80;;
16689;SDS011;8458;52.220;9.884;2022-11-24T08:17:53;6.27;;;2.20;;
16689;SDS011;8458;52.220;9.884;2022-11-24T08:20:19;4.87;;;2.00;;
16689;SDS011;8458;52.220;9.884;2022-11-24T08:22:46;5.83;;;2.10;;
16689;SDS011;8458;52.220;9.884;2022-11-24T08:25:12;6.33;;;1.90;;
16689;SDS011;8458;52.220;9.884;2022-11-24T08:27:40;5.27;;;1.80;;
16689;SDS011;8458;52.220;9.884;2022-11-24T08:30:07;3.77;;;1.60;;
16689;SDS011;8458;52.220;9.884;2022-11-24T08:32:34;4.90;;;1.50;;
16689;SDS011;8458;52.220;9.884;2022-11-24T08:35:01;4.40;;;1.73;;
16689;SDS011;8458;52.220;9.884;2022-11-24T08:37:27;6.30;;;2.10;;
16689;SDS011;8458;52.220;9.884;2022-11-24T08:39:54;4.03;;;1.80;;
16689;SDS011;8458;52.220;9.884;2022-11-24T08:42:20;4.43;;;1.77;;
16689;SDS011;8458;52.220;9.884;2022-11-24T08:44:48;4.73;;;1.70;;
16689;SDS011;8458;52.220;9.884;2022-11-24T08:47:14;4.73;;;2.03;;
16689;SDS011;8458;52.220;9.884;2022-11-24T08:49:41;4.97;;;2.03;;
16689;SDS011;8458;52.220;9.884;2022-11-24T08:52:07;4.57;;;1.97;;
16689;SDS011;8458;52.220;9.884;2022-11-24T08:54:34;6.50;;;1.63;;
16689;SDS011;8458;52.220;9.884;2022-11-24T08:57:00;3.97;;;1.57;;
16689;SDS011;8458;52.220;9.884;2022-11-24T08:59:27;5.40;;;1.97;;
16689;SDS011;8458;52.220;9.884;2022-11-24T09:01:55;6.10;;;2.00;;
16689;SDS011;8458;52.220;9.884;2022-11-24T09:04:21;5.87;;;1.90;;
16689;SDS011;8458;52.220;9.884;2022-11-24T09:06:47;3.63;;;1.70;;
16689;SDS011;8458;52.220;9.884;2022-11-24T09:09:14;5.13;;;1.70;;
16689;SDS011;8458;52.220;9.884;2022-11-24T09:11:40;6.20;;;1.70;;
16689;SDS011;8458;52.220;9.884;2022-11-24T09:14:07;5.87;;;2.00;;
16689;SDS011;8458;52.220;9.884;2022-11-24T09:16:33;5.13;;;1.87;;
16689;SDS011;8458;52.220;9.884;2022-11-24T09:19:02;5.03;;;2.10;;
16689;SDS011;8458;52.220;9.884;2022-11-24T09:21:30;5.13;;;2.43;;
16689;SDS011;8458;52.220;9.884;2022-11-24T09:23:58;6.03;;;2.37;;
16689;SDS011;8458;52.220;9.884;2022-11-24T09:26:25;6.33;;;2.50;;
16689;SDS011;8458;52.220;9.884;2022-11-24T09:28:54;5.73;;;2.23;;
16689;SDS011;8458;52.220;9.884;2022-11-24T09:31:21;6.53;;;1.80;;
16689;SDS011;8458;52.220;9.884;2022-11-24T09:33:50;4.50;;;1.87;;
16689;SDS011;8458;52.220;9.884;2022-11-24T09:36:19;4.33;;;2.00;;
16689;SDS011;8458;52.220;9.884;2022-11-24T09:38:46;5.43;;;2.23;;
16689;SDS011;8458;52.220;9.884;2022-11-24T09:41:19;4.07;;;1.83;;
16689;SDS011;8458;52.220;9.884;2022-11-24T09:43:54;3.43;;;1.60;;
16689;SDS011;8458;52.220;9.884;2022-11-24T09:46:26;4.00;;;2.07;;
16689;SDS011;8458;52.220;9.884;2022-11-24T09:48:58;4.87;;;2.27;;
16689;SDS011;8458;52.220;9.884;2022-11-24T09:51:29;4.17;;;1.53;;
16689;SDS011;8458;52.220;9.884;2022-11-24T09:53:58;4.63;;;1.83;;
16689;SDS011;8458;52.220;9.884;2022-11-24T09:56:29;3.73;;;1.67;;
16689;SDS011;8458;52.220;9.884;2022-11-24T09:58:59;6.97;;;2.20;;
16689;SDS011;8458;52.220;9.884;2022-11-24T10:01:29;4.87;;;1.83;;
16689;SDS011;8458;52.220;9.884;2022-11-24T10:03:56;3.13;;;1.53;;
16689;SDS011;8458;52.220;9.884;2022-11-24T10:06:24;4.57;;;1.60;;
16689;SDS011;8458;52.220;9.884;2022-11-24T10:09:10;3.53;;;1.30;;
16689;SDS011;8458;52.220;9.884;2022-11-24T10:11:45;4.47;;;1.70;;
16689;SDS011;8458;52.220;9.884;2022-11-24T10:14:22;3.50;;;1.60;;
16689;SDS011;8458;52.220;9.884;2022-11-24T10:17:02;2.97;;;1.40;;
16689;SDS011;8458;52.220;9.884;2022-11-24T10:19:37;3.57;;;1.70;;
16689;SDS011;8458;52.220;9.884;2022-11-24T10:22:18;5.70;;;1.77;;
16689;SDS011;8458;52.220;9.884;2022-11-24T10:25:12;3.93;;;1.17;;
16689;SDS011;8458;52.220;9.884;2022-11-24T10:27:44;4.33;;;1.63;;
16689;SDS011;8458;52.220;9.884;2022-11-24T10:30:15;3.87;;;1.73;;
16689;SDS011;8458;52.220;9.884;2022-11-24T10:32:45;3.87;;;1.43;;
16689;SDS011;8458;52.220;9.884;2022-11-24T10:35:14;4.30;;;1.47;;
16689;SDS011;8458;52.220;9.884;2022-11-24T10:37:44;4.77;;;1.30;;
16689;SDS011;8458;52.220;9.884;2022-11-24T10:40:23;6.03;;;1.70;;
16689;SDS011;8458;52.220;9.884;2022-11-24T10:42:54;4.17;;;2.10;;
16689;SDS011;8458;52.220;9.884;2022-11-24T10:45:21;4.60;;;1.83;;
16689;SDS011;8458;52.220;9.884;2022-11-24T10:47:48;4.53;;;1.70;;
16689;SDS011;8458;52.220;9.884;2022-11-24T10:50:18;3.23;;;1.63;;
16689;SDS011;8458;52.220;9.884;2022-11-24T10:52:46;5.13;;;2.00;;
16689;SDS011;8458;52.220;9.884;2022-11-24T10:55:20;3.73;;;1.67;;
16689;SDS011;8458;52.220;9.884;2022-11-24T10:57:48;5.27;;;2.10;;
16689;SDS011;8458;52.220;9.884;2022-11-24T11:00:30;4.37;;;1.57;;
16689;SDS011;8458;52.220;9.884;2022-11-24T11:03:14;4.67;;;1.80;;
16689;SDS011;8458;52.220;9.884;2022-11-24T11:05:43;4.70;;;1.77;;
16689;SDS011;8458;52.220;9.884;2022-11-24T11:08:21;5.23;;;1.80;;
16689;SDS011;8458;52.220;9.884;2022-11-24T11:11:12;5.23;;;2.30;;
16689;SDS011;8458;52.220;9.884;2022-11-24T11:13:52;6.60;;;2.40;;
16689;SDS011;8458;52.220;9.884;2022-11-24T11:16:29;7.17;;;2.73;;
16689;SDS011;8458;52.220;9.884;2022-11-24T11:18:59;4.00;;;1.87;;
16689;SDS011;8458;52.220;9.884;2022-11-24T11:21:29;4.23;;;2.17;;
16689;SDS011;8458;52.220;9.884;2022-11-24T11:23:58;5.33;;;2.20;;
16689;SDS011;8458;52.220;9.884;2022-11-24T11:26:35;5.53;;;2.00;;
16689;SDS011;8458;52.220;9.884;2022-11-24T11:29:12;4.60;;;2.10;;
16689;SDS011;8458;52.220;9.884;2022-11-24T11:31:43;4.77;;;2.07;;
16689;SDS011;8458;52.220;9.884;2022-11-24T11:34:22;5.27;;;2.10;;
16689;SDS011;8458;52.220;9.884;2022-11-24T11:36:49;5.63;;;2.33;;
16689;SDS011;8458;52.220;9.884;2022-11-24T11:39:22;5.30;;;1.93;;
16689;SDS011;8458;52.220;9.884;2022-11-24T11:41:51;5.00;;;1.73;;
16689;SDS011;8458;52.220;9.884;2022-11-24T11:44:27;6.20;;;2.50;;
16689;SDS011;8458;52.220;9.884;2022-11-24T11:46:59;5.33;;;2.17;;
16689;SDS011;8458;52.220;9.884;2022-11-24T11:49:34;5.33;;;2.20;;
16689;SDS011;8458;52.220;9.884;2022-11-24T11:52:07;5.20;;;1.97;;
16689;SDS011;8458;52.220;9.884;2022-11-24T11:55:03;4.47;;;1.70;;
16689;SDS011;8458;52.220;9.884;2022-11-24T11:57:41;3.73;;;1.50;;
16689;SDS011;8458;52.220;9.884;2022-11-24T12:00:17;4.93;;;1.60;;
16689;SDS011;8458;52.220;9.884;2022-11-24T12:05:49;5.57;;;2.40;;
16689;SDS011;8458;52.220;9.884;2022-11-24T12:08:25;5.30;;;2.13;;
16689;SDS011;8458;52.220;9.884;2022-11-24T12:11:04;3.37;;;1.80;;
16689;SDS011;8458;52.220;9.884;2022-11-24T12:16:36;4.63;;;1.67;;
16689;SDS011;8458;52.220;9.884;2022-11-24T12:19:13;4.53;;;1.97;;
16689;SDS011;8458;52.220;9.884;2022-11-24T12:21:50;5.20;;;1.67;;
16689;SDS011;8458;52.220;9.884;2022-11-24T12:24:27;3.63;;;1.73;;
16689;SDS011;8458;52.220;9.884;2022-11-24T12:27:02;5.57;;;2.50;;
16689;SDS011;8458;52.220;9.884;2022-11-24T12:29:35;4.70;;;1.93;;
16689;SDS011;8458;52.220;9.884;2022-11-24T12:32:23;4.70;;;1.67;;
16689;SDS011;8458;52.220;9.884;2022-11-24T12:35:07;3.07;;;1.80;;
16689;SDS011;8458;52.220;9.884;2022-11-24T12:37:48;4.37;;;2.00;;
16689;SDS011;8458;52.220;9.884;2022-11-24T12:40:24;2.47;;;1.53;;
16689;SDS011;8458;52.220;9.884;2022-11-24T12:42:58;3.27;;;1.57;;
16689;SDS011;8458;52.220;9.884;2022-11-24T12:45:32;4.40;;;1.60;;
16689;SDS011;8458;52.220;9.884;2022-11-24T12:48:12;2.80;;;1.67;;
16689;SDS011;8458;52.220;9.884;2022-11-24T12:50:53;3.93;;;1.67;;
16689;SDS011;8458;52.220;9.884;2022-11-24T12:53:21;2.80;;;1.40;;
16689;SDS011;8458;52.220;9.884;2022-11-24T12:55:50;4.57;;;1.83;;
16689;SDS011;8458;52.220;9.884;2022-11-24T12:58:19;3.53;;;1.47;;
16689;SDS011;8458;52.220;9.884;2022-11-24T13:00:54;3.50;;;1.80;;
16689;SDS011;8458;52.220;9.884;2022-11-24T13:03:35;3.20;;;1.80;;
16689;SDS011;8458;52.220;9.884;2022-11-24T13:06:09;5.60;;;2.63;;
16689;SDS011;8458;52.220;9.884;2022-11-24T13:08:40;4.20;;;2.30;;
16689;SDS011;8458;52.220;9.884;2022-11-24T13:11:31;3.97;;;2.27;;
16689;SDS011;8458;52.220;9.884;2022-11-24T13:14:04;3.90;;;1.80;;
16689;SDS011;8458;52.220;9.884;2022-11-24T13:16:32;4.13;;;2.10;;
16689;SDS011;8458;52.220;9.884;2022-11-24T13:19:05;3.80;;;1.90;;
16689;SDS011;8458;52.220;9.884;2022-11-24T13:21:55;3.67;;;2.70;;
16689;SDS011;8458;52.220;9.884;2022-11-24T13:24:26;5.37;;;3.93;;
16689;SDS011;8458;52.220;9.884;2022-11-24T13:29:51;3.37;;;1.60;;
16689;SDS011;8458;52.220;9.884;2022-11-24T13:35:26;4.00;;;2.47;;
16689;SDS011;8458;52.220;9.884;2022-11-24T13:37:52;3.97;;;3.10;;
16689;SDS011;8458;52.220;9.884;2022-11-24T13:43:19;4.60;;;3.03;;
16689;SDS011;8458;52.220;9.884;2022-11-24T13:45:47;3.20;;;2.83;;
16689;SDS011;8458;52.220;9.884;2022-11-24T13:51:23;2.90;;;1.90;;
16689;SDS011;8458;52.220;9.884;2022-11-24T13:53:51;3.23;;;1.87;;
16689;SDS011;8458;52.220;9.884;2022-11-24T13:56:20;2.10;;;1.50;;
16689;SDS011;8458;52.220;9.884;2022-11-24T13:58:50;5.00;;;2.20;;
16689;SDS011;8458;52.220;9.884;2022-11-24T14:01:20;2.37;;;1.83;;
16689;SDS011;8458;52.220;9.884;2022-11-24T14:03:59;2.93;;;1.87;;
16689;SDS011;8458;52.220;9.884;2022-11-24T14:06:32;3.07;;;2.10;;
16689;SDS011;8458;52.220;9.884;2022-11-24T14:09:03;4.47;;;2.10;;
16689;SDS011;8458;52.220;9.884;2022-11-24T14:11:41;3.67;;;1.60;;
16689;SDS011;8458;52.220;9.884;2022-11-24T14:14:12;3.93;;;1.60;;
16689;SDS011;8458;52.220;9.884;2022-11-24T14:16:45;3.10;;;1.90;;
16689;SDS011;8458;52.220;9.884;2022-11-24T14:19:16;3.67;;;1.83;;
16689;SDS011;8458;52.220;9.884;2022-11-24T14:21:44;1.93;;;1.53;;
16689;SDS011;8458;52.220;9.884;2022-11-24T14:24:12;2.73;;;1.60;;
16689;SDS011;8458;52.220;9.884;2022-11-24T14:26:48;2.70;;;1.80;;
16689;SDS011;8458;52.220;9.884;2022-11-24T14:29:16;3.07;;;2.10;;
16689;SDS011;8458;52.220;9.884;2022-11-24T14:31:50;2.27;;;2.00;;
16689;SDS011;8458;52.220;9.884;2022-11-24T14:34:19;2.03;;;1.60;;
16689;SDS011;8458;52.220;9.884;2022-11-24T14:36:48;1.73;;;1.53;;
16689;SDS011;8458;52.220;9.884;2022-11-24T14:39:17;1.67;;;1.57;;
16689;SDS011;8458;52.220;9.884;2022-11-24T14:41:49;2.70;;;1.87;;
16689;SDS011;8458;52.220;9.884;2022-11-24T14:44:18;2.67;;;1.70;;
16689;SDS011;8458;52.220;9.884;2022-11-24T14:46:47;1.77;;;1.67;;
16689;SDS011;8458;52.220;9.884;2022-11-24T14:49:18;2.27;;;1.73;;
16689;SDS011;8458;52.220;9.884;2022-11-24T14:51:47;2.20;;;1.67;;
16689;SDS011;8458;52.220;9.884;2022-11-24T14:54:20;1.97;;;1.70;;
16689;SDS011;8458;52.220;9.884;2022-11-24T14:56:55;2.33;;;1.90;;
16689;SDS011;8458;52.220;9.884;2022-11-24T14:59:24;2.03;;;1.77;;
16689;SDS011;8458;52.220;9.884;2022-11-24T15:01:53;1.93;;;1.80;;
16689;SDS011;8458;52.220;9.884;2022-11-24T15:04:21;3.27;;;2.57;;
16689;SDS011;8458;52.220;9.884;2022-11-24T15:07:00;2.67;;;2.47;;
16689;SDS011;8458;52.220;9.884;2022-11-24T15:09:40;1.80;;;1.70;;
16689;SDS011;8458;52.220;9.884;2022-11-24T15:12:17;2.73;;;2.20;;
16689;SDS011;8458;52.220;9.884;2022-11-24T15:14:52;2.73;;;2.50;;
16689;SDS011;8458;52.220;9.884;2022-11-24T15:17:21;2.70;;;2.30;;
16689;SDS011;8458;52.220;9.884;2022-11-24T15:19:50;3.03;;;2.40;;
16689;SDS011;8458;52.220;9.884;2022-11-24T15:22:35;2.60;;;2.40;;
16689;SDS011;8458;52.220;9.884;2022-11-24T15:27:51;4.50;;;3.50;;
16689;SDS011;8458;52.220;9.884;2022-11-24T15:30:17;3.70;;;3.40;;
16689;SDS011;8458;52.220;9.884;2022-11-24T15:32:48;3.97;;;3.57;;
16689;SDS011;8458;52.220;9.884;2022-11-24T15:35:15;6.07;;;3.57;;
16689;SDS011;8458;52.220;9.884;2022-11-24T15:37:43;3.97;;;3.60;;